Tabellarische Übersicht vom Sonntag, den 17.02.2019

Oder anderes Datum wählen:






max 3,4°C 93,0% 1,7°C 1024,6hPa 3,0°C 0,0km/h (0Bft) 0,0km/h 0° (N) ∑0,0l/m² 0,000klx ∑0,0min
min 1,3°C 88,0% 0,2°C 1022,9hPa 1,0°C 0,0km/h (0Bft) 0,0km/h 0° (N) ∑0,0l/m² 0,000klx ∑0,0min
Ø 2,4°C 91,0% 1,0°C 1023,7hPa 2,0°C 0,0km/h (0Bft) 0,0km/h 0° (N) ∑0,0l/m² 0,000klx ∑0,0min
Zeit Temperatur Luftfeuchte Taupunkt Luftdruck Windchill Windböen Windgeschwindigkeit Windrichtung Regen Helligkeit Regenzeit
04:50 1,7°C 92,2% 0,6°C 1022,9hPa 1,7°C 0,0km/h (0Bft) 0,0km/h 0,0l/m² 0,000klx 0,0min
04:45 1,8°C 92,0% 0,6°C 1022,9hPa 1,8°C 0,0km/h (0Bft) 0,0km/h 0,0l/m² 0,001klx 0,0min
04:40 1,9°C 92,0% 0,7°C 1023,0hPa 1,9°C 0,0km/h (0Bft) 0,0km/h 0,0l/m² 0,000klx 0,0min
04:35 1,9°C 92,4% 0,8°C 1023,0hPa 1,9°C 0,0km/h (0Bft) 0,0km/h 0,0l/m² 0,000klx 0,0min
04:30 1,7°C 92,5% 0,6°C 1023,0hPa 1,7°C 0,0km/h (0Bft) 0,0km/h 0,0l/m² 0,001klx 0,0min
04:25 1,7°C 92,7% 0,6°C 1023,1hPa 1,7°C 0,0km/h (0Bft) 0,0km/h 0,0l/m² 0,000klx 0,0min
04:20 1,5°C 92,9% 0,5°C 1023,1hPa 1,5°C 0,0km/h (0Bft) 0,0km/h 0,0l/m² 0,000klx 0,0min
04:15 1,3°C 92,5% 0,2°C 1023,1hPa 1,3°C 0,0km/h (0Bft) 0,0km/h 0,0l/m² 0,000klx 0,0min
04:10 1,5°C 92,2% 0,3°C 1023,2hPa 1,5°C 0,0km/h (0Bft) 0,0km/h 0,0l/m² 0,000klx 0,0min
04:05 1,7°C 91,8% 0,5°C 1023,2hPa 1,7°C 0,0km/h (0Bft) 0,0km/h 0,0l/m² 0,000klx 0,0min
04:00 1,9°C 91,9% 0,7°C 1023,3hPa 1,9°C 0,0km/h (0Bft) 0,0km/h 0,0l/m² 0,000klx 0,0min
03:55 2,0°C 92,4% 0,9°C 1023,3hPa 2,0°C 0,0km/h (0Bft) 0,0km/h 0,0l/m² 0,000klx 0,0min
03:50 1,7°C 92,5% 0,6°C 1023,3hPa 1,7°C 0,0km/h (0Bft) 0,0km/h 0,0l/m² 0,000klx 0,0min
03:45 1,7°C 91,7% 0,4°C 1023,3hPa 1,7°C 0,0km/h (0Bft) 0,0km/h 0,0l/m² 0,000klx 0,0min
03:40 2,0°C 90,6% 0,6°C 1023,4hPa 2,0°C 0,0km/h (0Bft) 0,0km/h 0,0l/m² 0,000klx 0,0min
03:35 2,4°C 91,1% 1,1°C 1023,4hPa 2,4°C 0,0km/h (0Bft) 0,0km/h 0,0l/m² 0,000klx 0,0min
03:30 2,3°C 90,9% 1,0°C 1023,5hPa 2,3°C 0,0km/h (0Bft) 0,0km/h 0,0l/m² 0,000klx 0,0min
03:25 2,5°C 91,4% 1,2°C 1023,5hPa 2,5°C 0,0km/h (0Bft) 0,0km/h 0,0l/m² 0,000klx 0,0min
03:20 2,4°C 92,3% 1,2°C 1023,5hPa 2,4°C 0,0km/h (0Bft) 0,0km/h 0,0l/m² 0,000klx 0,0min
03:15 2,2°C 92,6% 1,1°C 1023,5hPa 2,2°C 0,0km/h (0Bft) 0,0km/h 0,0l/m² 0,000klx 0,0min
03:10 2,0°C 92,6% 0,9°C 1023,6hPa 2,0°C 0,0km/h (0Bft) 0,0km/h 0,0l/m² 0,001klx 0,0min
03:05 1,8°C 92,5% 0,7°C 1023,6hPa 1,8°C 0,0km/h (0Bft) 0,0km/h 0,0l/m² 0,000klx 0,0min
03:00 1,6°C 92,0% 0,4°C 1023,7hPa 1,6°C 0,0km/h (0Bft) 0,0km/h 0,0l/m² 0,000klx 0,0min
02:55 1,7°C 91,6% 0,4°C 1023,8hPa 1,7°C 0,0km/h (0Bft) 0,0km/h 0,0l/m² 0,001klx 0,0min
02:50 1,9°C 91,9% 0,7°C 1023,8hPa 1,9°C 0,0km/h (0Bft) 0,0km/h 0,0l/m² 0,000klx 0,0min
02:45 1,8°C 91,7% 0,6°C 1023,8hPa 1,8°C 0,0km/h (0Bft) 0,0km/h 0,0l/m² 0,000klx 0,0min
02:40 1,9°C 91,5% 0,6°C 1023,8hPa 1,9°C 0,0km/h (0Bft) 0,0km/h 0,0l/m² 0,000klx 0,0min
02:35 2,0°C 91,5% 0,7°C 1023,7hPa 2,0°C 0,0km/h (0Bft) 0,0km/h 0,0l/m² 0,000klx 0,0min
02:30 1,9°C 91,6% 0,6°C 1023,7hPa 1,9°C 0,0km/h (0Bft) 0,0km/h 0,0l/m² 0,000klx 0,0min
02:25 1,8°C 91,4% 0,6°C 1023,8hPa 1,8°C 0,0km/h (0Bft) 0,0km/h 0,0l/m² 0,000klx 0,0min
02:20 2,0°C 91,4% 0,7°C 1023,8hPa 2,0°C 0,0km/h (0Bft) 0,0km/h 0,0l/m² 0,001klx 0,0min
02:15 2,0°C 91,3% 0,7°C 1023,7hPa 2,0°C 0,0km/h (0Bft) 0,0km/h 0,0l/m² 0,001klx 0,0min
02:10 2,1°C 91,0% 0,8°C 1023,7hPa 2,1°C 0,0km/h (0Bft) 0,0km/h 0,0l/m² 0,001klx 0,0min
02:05 2,2°C 91,0% 0,9°C 1023,7hPa 2,2°C 0,0km/h (0Bft) 0,0km/h 0,0l/m² 0,000klx 0,0min
02:00 2,2°C 91,2% 0,9°C 1023,7hPa 2,2°C 0,0km/h (0Bft) 0,0km/h 0,0l/m² 0,000klx 0,0min
01:55 2,1°C 91,0% 0,7°C 1023,8hPa 2,1°C 0,0km/h (0Bft) 0,0km/h 0,0l/m² 0,000klx 0,0min
01:50 2,1°C 90,3% 0,7°C 1023,8hPa 2,1°C 0,0km/h (0Bft) 0,0km/h 0,0l/m² 0,000klx 0,0min
01:45 2,5°C 89,7% 1,0°C 1023,7hPa 2,5°C 0,0km/h (0Bft) 0,0km/h 0,0l/m² 0,000klx 0,0min
01:40 2,8°C 89,3% 1,2°C 1023,8hPa 2,8°C 0,0km/h (0Bft) 0,0km/h 0,0l/m² 0,000klx 0,0min
01:35 2,9°C 88,5% 1,2°C 1023,9hPa 2,9°C 0,0km/h (0Bft) 0,0km/h 0,0l/m² 0,000klx 0,0min
01:30 3,3°C 87,7% 1,4°C 1023,9hPa 3,3°C 0,0km/h (0Bft) 0,0km/h 0,0l/m² 0,000klx 0,0min
01:25 3,3°C 88,5% 1,5°C 1023,9hPa 3,3°C 0,0km/h (0Bft) 0,0km/h 0,0l/m² 0,000klx 0,0min
01:20 3,2°C 89,0% 1,5°C 1023,9hPa 3,2°C 0,0km/h (0Bft) 0,0km/h 0,0l/m² 0,000klx 0,0min
01:15 3,1°C 88,9% 1,4°C 1023,9hPa 3,1°C 0,0km/h (0Bft) 0,0km/h 0,0l/m² 0,000klx 0,0min
01:10 3,1°C 89,2% 1,4°C 1024,0hPa 3,1°C 0,0km/h (0Bft) 0,0km/h 0,0l/m² 0,000klx 0,0min
01:05 3,1°C 89,1% 1,4°C 1024,1hPa 3,1°C 0,0km/h (0Bft) 0,0km/h 0,0l/m² 0,000klx 0,0min
01:00 3,0°C 88,7% 1,4°C 1024,1hPa 3,0°C 0,0km/h (0Bft) 0,0km/h 0,0l/m² 0,000klx 0,0min
00:55 3,2°C 88,6% 1,5°C 1024,2hPa 3,2°C 0,0km/h (0Bft) 0,0km/h 0,0l/m² 0,000klx 0,0min
00:50 3,1°C 89,0% 1,5°C 1024,2hPa 3,1°C 0,0km/h (0Bft) 0,0km/h 0,0l/m² 0,000klx 0,0min
00:45 3,1°C 88,9% 1,4°C 1024,3hPa 3,1°C 0,0km/h (0Bft) 0,0km/h 0,0l/m² 0,000klx 0,0min
00:40 3,2°C 88,1% 1,4°C 1024,4hPa 3,2°C 0,0km/h (0Bft) 0,0km/h 0,0l/m² 0,000klx 0,0min
00:35 3,4°C 87,9% 1,5°C 1024,4hPa 3,4°C 0,0km/h (0Bft) 0,0km/h 0,0l/m² 0,000klx 0,0min
00:30 3,4°C 87,9% 1,6°C 1024,5hPa 3,4°C 0,0km/h (0Bft) 0,0km/h 0,0l/m² 0,000klx 0,0min
00:25 3,4°C 88,1% 1,6°C 1024,5hPa 3,4°C 0,0km/h (0Bft) 0,0km/h 0,0l/m² 0,000klx 0,0min
00:20 3,3°C 88,3% 1,6°C 1024,5hPa 3,3°C 0,0km/h (0Bft) 0,0km/h 0,0l/m² 0,000klx 0,0min
00:15 3,3°C 88,3% 1,6°C 1024,5hPa 3,3°C 0,0km/h (0Bft) 0,0km/h 0,0l/m² 0,000klx 0,0min
00:10 3,4°C 88,1% 1,6°C 1024,6hPa 3,4°C 0,0km/h (0Bft) 0,0km/h 0,0l/m² 0,000klx 0,0min
00:05 3,4°C 88,4% 1,7°C 1024,6hPa 3,4°C 0,0km/h (0Bft) 0,0km/h 0,0l/m² 0,000klx 0,0min
00:00 3,4°C 88,4% 1,7°C 1024,6hPa 3,4°C 0,0km/h (0Bft) 0,0km/h 0,0l/m² 0,000klx 0,0min

Aktuelle Wetterdaten

17.02.2019 04:50 Uhr